sensor_id;sensor_type;location;lat;lon;timestamp;P1;durP1;ratioP1;P2;durP2;ratioP2
6420;SDS011;3243;50.958;7.012;2024-02-21T00:00:47;9.40;;;5.10;;
6420;SDS011;3243;50.958;7.012;2024-02-21T00:03:14;12.77;;;4.90;;
6420;SDS011;3243;50.958;7.012;2024-02-21T00:05:41;9.67;;;5.17;;
6420;SDS011;3243;50.958;7.012;2024-02-21T00:08:08;13.93;;;4.93;;
6420;SDS011;3243;50.958;7.012;2024-02-21T00:10:35;12.53;;;5.13;;
6420;SDS011;3243;50.958;7.012;2024-02-21T00:13:02;10.37;;;5.10;;
6420;SDS011;3243;50.958;7.012;2024-02-21T00:15:29;9.83;;;4.73;;
6420;SDS011;3243;50.958;7.012;2024-02-21T00:17:56;11.50;;;4.93;;
6420;SDS011;3243;50.958;7.012;2024-02-21T00:20:24;11.60;;;5.20;;
6420;SDS011;3243;50.958;7.012;2024-02-21T00:22:52;11.73;;;4.97;;
6420;SDS011;3243;50.958;7.012;2024-02-21T00:25:19;11.70;;;5.13;;
6420;SDS011;3243;50.958;7.012;2024-02-21T00:27:46;11.17;;;5.13;;
6420;SDS011;3243;50.958;7.012;2024-02-21T00:30:14;12.90;;;4.93;;
6420;SDS011;3243;50.958;7.012;2024-02-21T00:32:40;14.43;;;4.90;;
6420;SDS011;3243;50.958;7.012;2024-02-21T00:35:08;14.70;;;5.00;;
6420;SDS011;3243;50.958;7.012;2024-02-21T00:37:35;10.67;;;4.53;;
6420;SDS011;3243;50.958;7.012;2024-02-21T00:40:02;11.23;;;4.97;;
6420;SDS011;3243;50.958;7.012;2024-02-21T00:42:29;13.83;;;5.40;;
6420;SDS011;3243;50.958;7.012;2024-02-21T00:44:56;11.40;;;5.20;;
6420;SDS011;3243;50.958;7.012;2024-02-21T00:47:23;13.83;;;5.13;;
6420;SDS011;3243;50.958;7.012;2024-02-21T00:49:49;12.90;;;5.60;;
6420;SDS011;3243;50.958;7.012;2024-02-21T00:52:17;11.97;;;5.27;;
6420;SDS011;3243;50.958;7.012;2024-02-21T00:54:44;16.97;;;5.70;;
6420;SDS011;3243;50.958;7.012;2024-02-21T00:57:19;13.57;;;5.50;;
6420;SDS011;3243;50.958;7.012;2024-02-21T00:59:46;14.70;;;5.10;;
6420;SDS011;3243;50.958;7.012;2024-02-21T01:02:13;9.90;;;5.30;;
6420;SDS011;3243;50.958;7.012;2024-02-21T01:04:40;14.43;;;5.30;;
6420;SDS011;3243;50.958;7.012;2024-02-21T01:07:07;13.97;;;5.57;;
6420;SDS011;3243;50.958;7.012;2024-02-21T01:09:34;12.53;;;5.10;;
6420;SDS011;3243;50.958;7.012;2024-02-21T01:12:01;16.13;;;5.90;;
6420;SDS011;3243;50.958;7.012;2024-02-21T01:14:28;10.67;;;5.80;;
6420;SDS011;3243;50.958;7.012;2024-02-21T01:16:55;13.80;;;5.50;;
6420;SDS011;3243;50.958;7.012;2024-02-21T01:19:22;14.83;;;5.97;;
6420;SDS011;3243;50.958;7.012;2024-02-21T01:21:50;9.87;;;4.80;;
6420;SDS011;3243;50.958;7.012;2024-02-21T01:24:17;13.53;;;6.33;;
6420;SDS011;3243;50.958;7.012;2024-02-21T01:26:43;16.23;;;5.70;;
6420;SDS011;3243;50.958;7.012;2024-02-21T01:29:10;10.30;;;5.17;;
6420;SDS011;3243;50.958;7.012;2024-02-21T01:31:38;11.67;;;5.63;;
6420;SDS011;3243;50.958;7.012;2024-02-21T01:34:05;15.27;;;6.37;;
6420;SDS011;3243;50.958;7.012;2024-02-21T01:36:33;12.80;;;5.70;;
6420;SDS011;3243;50.958;7.012;2024-02-21T01:39:00;10.43;;;5.23;;
6420;SDS011;3243;50.958;7.012;2024-02-21T01:41:29;14.33;;;6.07;;
6420;SDS011;3243;50.958;7.012;2024-02-21T01:43:57;12.87;;;5.60;;
6420;SDS011;3243;50.958;7.012;2024-02-21T01:46:24;11.73;;;5.43;;
6420;SDS011;3243;50.958;7.012;2024-02-21T01:48:55;11.27;;;5.90;;
6420;SDS011;3243;50.958;7.012;2024-02-21T01:51:23;16.47;;;6.30;;
6420;SDS011;3243;50.958;7.012;2024-02-21T01:53:51;13.67;;;5.67;;
6420;SDS011;3243;50.958;7.012;2024-02-21T01:56:19;14.73;;;5.80;;
6420;SDS011;3243;50.958;7.012;2024-02-21T01:58:46;14.40;;;5.77;;
6420;SDS011;3243;50.958;7.012;2024-02-21T02:01:15;11.53;;;5.90;;
6420;SDS011;3243;50.958;7.012;2024-02-21T02:03:47;15.07;;;5.63;;
6420;SDS011;3243;50.958;7.012;2024-02-21T02:06:15;13.20;;;6.27;;
6420;SDS011;3243;50.958;7.012;2024-02-21T02:08:43;13.03;;;5.57;;
6420;SDS011;3243;50.958;7.012;2024-02-21T02:11:10;11.97;;;5.40;;
6420;SDS011;3243;50.958;7.012;2024-02-21T02:13:39;16.80;;;6.30;;
6420;SDS011;3243;50.958;7.012;2024-02-21T02:16:06;12.80;;;5.83;;
6420;SDS011;3243;50.958;7.012;2024-02-21T02:18:33;16.63;;;5.50;;
6420;SDS011;3243;50.958;7.012;2024-02-21T02:21:00;15.03;;;5.70;;
6420;SDS011;3243;50.958;7.012;2024-02-21T02:23:28;11.53;;;5.43;;
6420;SDS011;3243;50.958;7.012;2024-02-21T02:25:56;13.37;;;6.13;;
6420;SDS011;3243;50.958;7.012;2024-02-21T02:28:23;13.63;;;6.30;;
6420;SDS011;3243;50.958;7.012;2024-02-21T02:30:51;10.20;;;5.47;;
6420;SDS011;3243;50.958;7.012;2024-02-21T02:33:18;14.70;;;5.70;;
6420;SDS011;3243;50.958;7.012;2024-02-21T02:35:45;12.20;;;6.00;;
6420;SDS011;3243;50.958;7.012;2024-02-21T02:38:12;12.07;;;5.63;;
6420;SDS011;3243;50.958;7.012;2024-02-21T02:40:40;15.27;;;6.03;;
6420;SDS011;3243;50.958;7.012;2024-02-21T02:43:08;11.27;;;5.80;;
6420;SDS011;3243;50.958;7.012;2024-02-21T02:45:35;13.67;;;5.80;;
6420;SDS011;3243;50.958;7.012;2024-02-21T02:48:02;14.87;;;5.23;;
6420;SDS011;3243;50.958;7.012;2024-02-21T02:50:29;13.80;;;6.13;;
6420;SDS011;3243;50.958;7.012;2024-02-21T02:52:57;16.90;;;6.60;;
6420;SDS011;3243;50.958;7.012;2024-02-21T02:55:25;12.40;;;5.40;;
6420;SDS011;3243;50.958;7.012;2024-02-21T02:57:53;13.77;;;5.27;;
6420;SDS011;3243;50.958;7.012;2024-02-21T03:00:20;14.53;;;5.60;;
6420;SDS011;3243;50.958;7.012;2024-02-21T03:02:48;11.33;;;5.30;;
6420;SDS011;3243;50.958;7.012;2024-02-21T03:05:16;11.37;;;5.07;;
6420;SDS011;3243;50.958;7.012;2024-02-21T03:07:44;13.80;;;4.93;;
6420;SDS011;3243;50.958;7.012;2024-02-21T03:10:12;13.80;;;5.43;;
6420;SDS011;3243;50.958;7.012;2024-02-21T03:12:39;10.57;;;4.90;;
6420;SDS011;3243;50.958;7.012;2024-02-21T03:15:06;13.37;;;5.33;;
6420;SDS011;3243;50.958;7.012;2024-02-21T03:17:33;11.73;;;5.50;;
6420;SDS011;3243;50.958;7.012;2024-02-21T03:20:01;12.87;;;4.93;;
6420;SDS011;3243;50.958;7.012;2024-02-21T03:22:31;13.00;;;5.37;;
6420;SDS011;3243;50.958;7.012;2024-02-21T03:24:59;13.77;;;5.37;;
6420;SDS011;3243;50.958;7.012;2024-02-21T03:27:26;12.17;;;5.30;;
6420;SDS011;3243;50.958;7.012;2024-02-21T03:29:54;12.87;;;5.80;;
6420;SDS011;3243;50.958;7.012;2024-02-21T03:32:20;13.30;;;5.87;;
6420;SDS011;3243;50.958;7.012;2024-02-21T03:34:48;16.33;;;5.83;;
6420;SDS011;3243;50.958;7.012;2024-02-21T03:37:15;9.93;;;5.23;;
6420;SDS011;3243;50.958;7.012;2024-02-21T03:39:42;10.20;;;5.07;;
6420;SDS011;3243;50.958;7.012;2024-02-21T03:42:09;14.50;;;5.60;;
6420;SDS011;3243;50.958;7.012;2024-02-21T03:44:36;16.77;;;6.00;;
6420;SDS011;3243;50.958;7.012;2024-02-21T03:47:03;12.67;;;5.57;;
6420;SDS011;3243;50.958;7.012;2024-02-21T03:49:30;13.50;;;5.87;;
6420;SDS011;3243;50.958;7.012;2024-02-21T03:51:57;13.80;;;5.67;;
6420;SDS011;3243;50.958;7.012;2024-02-21T03:54:24;15.40;;;5.40;;
6420;SDS011;3243;50.958;7.012;2024-02-21T03:56:51;14.77;;;4.80;;
6420;SDS011;3243;50.958;7.012;2024-02-21T03:59:18;11.70;;;4.83;;
6420;SDS011;3243;50.958;7.012;2024-02-21T04:01:45;11.63;;;5.20;;
6420;SDS011;3243;50.958;7.012;2024-02-21T04:04:12;10.37;;;5.00;;
6420;SDS011;3243;50.958;7.012;2024-02-21T04:06:46;11.60;;;4.97;;
6420;SDS011;3243;50.958;7.012;2024-02-21T04:09:13;12.13;;;5.40;;
6420;SDS011;3243;50.958;7.012;2024-02-21T04:11:41;15.00;;;5.37;;
6420;SDS011;3243;50.958;7.012;2024-02-21T04:14:08;10.47;;;5.23;;
6420;SDS011;3243;50.958;7.012;2024-02-21T04:16:35;12.07;;;4.80;;
6420;SDS011;3243;50.958;7.012;2024-02-21T04:19:02;12.67;;;4.97;;
6420;SDS011;3243;50.958;7.012;2024-02-21T04:21:29;12.27;;;4.67;;
6420;SDS011;3243;50.958;7.012;2024-02-21T04:23:56;10.33;;;5.00;;
6420;SDS011;3243;50.958;7.012;2024-02-21T04:26:23;11.77;;;4.67;;
6420;SDS011;3243;50.958;7.012;2024-02-21T04:28:50;9.87;;;4.80;;
6420;SDS011;3243;50.958;7.012;2024-02-21T04:31:17;14.43;;;5.30;;
6420;SDS011;3243;50.958;7.012;2024-02-21T04:33:44;15.10;;;4.60;;
6420;SDS011;3243;50.958;7.012;2024-02-21T04:36:11;12.43;;;4.60;;
6420;SDS011;3243;50.958;7.012;2024-02-21T04:38:38;9.40;;;4.93;;
6420;SDS011;3243;50.958;7.012;2024-02-21T04:41:07;10.40;;;4.60;;
6420;SDS011;3243;50.958;7.012;2024-02-21T04:43:34;11.93;;;4.90;;
6420;SDS011;3243;50.958;7.012;2024-02-21T04:46:01;14.73;;;5.43;;
6420;SDS011;3243;50.958;7.012;2024-02-21T04:48:28;10.90;;;4.67;;
6420;SDS011;3243;50.958;7.012;2024-02-21T04:50:55;13.27;;;4.70;;
6420;SDS011;3243;50.958;7.012;2024-02-21T04:53:22;9.70;;;4.57;;
6420;SDS011;3243;50.958;7.012;2024-02-21T04:55:48;11.87;;;5.13;;
6420;SDS011;3243;50.958;7.012;2024-02-21T04:58:15;14.07;;;5.07;;
6420;SDS011;3243;50.958;7.012;2024-02-21T05:00:42;10.50;;;4.50;;
6420;SDS011;3243;50.958;7.012;2024-02-21T05:03:09;10.03;;;4.40;;
6420;SDS011;3243;50.958;7.012;2024-02-21T05:05:37;12.67;;;4.43;;
6420;SDS011;3243;50.958;7.012;2024-02-21T05:08:05;13.17;;;4.67;;
6420;SDS011;3243;50.958;7.012;2024-02-21T05:10:32;8.50;;;4.43;;
6420;SDS011;3243;50.958;7.012;2024-02-21T05:12:59;8.07;;;4.47;;
6420;SDS011;3243;50.958;7.012;2024-02-21T05:15:26;9.87;;;4.63;;
6420;SDS011;3243;50.958;7.012;2024-02-21T05:17:53;10.60;;;4.37;;
6420;SDS011;3243;50.958;7.012;2024-02-21T05:20:20;12.40;;;4.50;;
6420;SDS011;3243;50.958;7.012;2024-02-21T05:22:47;9.40;;;4.43;;
6420;SDS011;3243;50.958;7.012;2024-02-21T05:25:14;11.20;;;4.33;;
6420;SDS011;3243;50.958;7.012;2024-02-21T05:27:41;12.73;;;4.60;;
6420;SDS011;3243;50.958;7.012;2024-02-21T05:30:08;9.33;;;5.17;;
6420;SDS011;3243;50.958;7.012;2024-02-21T05:32:36;9.87;;;4.60;;
6420;SDS011;3243;50.958;7.012;2024-02-21T05:35:03;11.70;;;4.50;;
6420;SDS011;3243;50.958;7.012;2024-02-21T05:37:30;8.47;;;4.37;;
6420;SDS011;3243;50.958;7.012;2024-02-21T05:39:57;9.83;;;5.23;;
6420;SDS011;3243;50.958;7.012;2024-02-21T05:42:24;10.37;;;5.20;;
6420;SDS011;3243;50.958;7.012;2024-02-21T05:44:51;11.50;;;4.70;;
6420;SDS011;3243;50.958;7.012;2024-02-21T05:47:18;9.50;;;4.57;;
6420;SDS011;3243;50.958;7.012;2024-02-21T05:49:46;11.90;;;4.70;;
6420;SDS011;3243;50.958;7.012;2024-02-21T05:52:14;11.13;;;4.13;;
6420;SDS011;3243;50.958;7.012;2024-02-21T05:54:42;13.73;;;5.10;;
6420;SDS011;3243;50.958;7.012;2024-02-21T05:57:08;10.60;;;4.47;;
6420;SDS011;3243;50.958;7.012;2024-02-21T05:59:37;10.43;;;4.90;;
6420;SDS011;3243;50.958;7.012;2024-02-21T06:02:06;12.50;;;5.40;;
6420;SDS011;3243;50.958;7.012;2024-02-21T06:04:34;8.27;;;4.37;;
6420;SDS011;3243;50.958;7.012;2024-02-21T06:07:01;11.13;;;5.13;;
6420;SDS011;3243;50.958;7.012;2024-02-21T06:09:28;9.13;;;4.20;;
6420;SDS011;3243;50.958;7.012;2024-02-21T06:11:55;10.67;;;4.97;;
6420;SDS011;3243;50.958;7.012;2024-02-21T06:14:22;11.47;;;4.90;;
6420;SDS011;3243;50.958;7.012;2024-02-21T06:16:49;9.60;;;4.27;;
6420;SDS011;3243;50.958;7.012;2024-02-21T06:19:16;10.37;;;4.77;;
6420;SDS011;3243;50.958;7.012;2024-02-21T06:21:43;9.03;;;5.07;;
6420;SDS011;3243;50.958;7.012;2024-02-21T06:24:10;13.27;;;5.33;;
6420;SDS011;3243;50.958;7.012;2024-02-21T06:26:39;10.63;;;4.50;;
6420;SDS011;3243;50.958;7.012;2024-02-21T06:29:06;12.10;;;4.30;;
6420;SDS011;3243;50.958;7.012;2024-02-21T06:31:34;7.20;;;4.17;;
6420;SDS011;3243;50.958;7.012;2024-02-21T06:34:02;9.47;;;4.47;;
6420;SDS011;3243;50.958;7.012;2024-02-21T06:36:30;7.73;;;4.00;;
6420;SDS011;3243;50.958;7.012;2024-02-21T06:38:58;10.13;;;4.70;;
6420;SDS011;3243;50.958;7.012;2024-02-21T06:41:25;8.90;;;4.70;;
6420;SDS011;3243;50.958;7.012;2024-02-21T06:43:52;9.33;;;4.33;;
6420;SDS011;3243;50.958;7.012;2024-02-21T06:46:23;12.57;;;4.73;;
6420;SDS011;3243;50.958;7.012;2024-02-21T06:48:55;9.83;;;4.47;;
6420;SDS011;3243;50.958;7.012;2024-02-21T06:51:23;10.13;;;5.20;;
6420;SDS011;3243;50.958;7.012;2024-02-21T06:53:51;10.13;;;5.00;;
6420;SDS011;3243;50.958;7.012;2024-02-21T06:56:18;9.87;;;4.43;;
6420;SDS011;3243;50.958;7.012;2024-02-21T06:58:45;9.03;;;4.40;;
6420;SDS011;3243;50.958;7.012;2024-02-21T07:01:12;10.10;;;4.43;;
6420;SDS011;3243;50.958;7.012;2024-02-21T07:03:39;10.30;;;4.40;;
6420;SDS011;3243;50.958;7.012;2024-02-21T07:06:06;11.93;;;4.63;;
6420;SDS011;3243;50.958;7.012;2024-02-21T07:08:33;10.80;;;4.23;;
6420;SDS011;3243;50.958;7.012;2024-02-21T07:11:00;8.73;;;3.97;;
6420;SDS011;3243;50.958;7.012;2024-02-21T07:13:27;10.77;;;4.70;;
6420;SDS011;3243;50.958;7.012;2024-02-21T07:15:54;10.47;;;4.23;;
6420;SDS011;3243;50.958;7.012;2024-02-21T07:18:21;10.00;;;4.37;;
6420;SDS011;3243;50.958;7.012;2024-02-21T07:20:48;8.27;;;4.30;;
6420;SDS011;3243;50.958;7.012;2024-02-21T07:23:15;8.23;;;4.10;;
6420;SDS011;3243;50.958;7.012;2024-02-21T07:25:42;8.47;;;4.00;;
6420;SDS011;3243;50.958;7.012;2024-02-21T07:28:10;8.93;;;4.40;;
6420;SDS011;3243;50.958;7.012;2024-02-21T07:30:37;8.63;;;4.23;;
6420;SDS011;3243;50.958;7.012;2024-02-21T07:33:04;9.63;;;3.93;;
6420;SDS011;3243;50.958;7.012;2024-02-21T07:35:33;10.13;;;4.30;;
6420;SDS011;3243;50.958;7.012;2024-02-21T07:38:00;7.40;;;3.57;;
6420;SDS011;3243;50.958;7.012;2024-02-21T07:40:27;7.80;;;3.93;;
6420;SDS011;3243;50.958;7.012;2024-02-21T07:42:54;11.07;;;4.47;;
6420;SDS011;3243;50.958;7.012;2024-02-21T07:45:22;8.57;;;4.07;;
6420;SDS011;3243;50.958;7.012;2024-02-21T07:47:50;8.77;;;4.30;;
6420;SDS011;3243;50.958;7.012;2024-02-21T07:50:17;9.23;;;4.13;;
6420;SDS011;3243;50.958;7.012;2024-02-21T07:52:44;7.87;;;4.27;;
6420;SDS011;3243;50.958;7.012;2024-02-21T07:55:11;8.80;;;4.47;;
6420;SDS011;3243;50.958;7.012;2024-02-21T07:57:38;9.10;;;4.40;;
6420;SDS011;3243;50.958;7.012;2024-02-21T08:00:06;9.03;;;4.20;;
6420;SDS011;3243;50.958;7.012;2024-02-21T08:02:35;10.13;;;4.20;;
6420;SDS011;3243;50.958;7.012;2024-02-21T08:05:04;8.23;;;3.90;;
6420;SDS011;3243;50.958;7.012;2024-02-21T08:07:31;12.83;;;4.53;;
6420;SDS011;3243;50.958;7.012;2024-02-21T08:09:58;7.60;;;4.17;;
6420;SDS011;3243;50.958;7.012;2024-02-21T08:12:25;8.77;;;4.00;;
6420;SDS011;3243;50.958;7.012;2024-02-21T08:14:52;7.67;;;4.00;;
6420;SDS011;3243;50.958;7.012;2024-02-21T08:17:18;11.17;;;5.33;;
6420;SDS011;3243;50.958;7.012;2024-02-21T08:19:45;10.30;;;4.33;;
6420;SDS011;3243;50.958;7.012;2024-02-21T08:22:12;8.40;;;3.97;;
6420;SDS011;3243;50.958;7.012;2024-02-21T08:24:39;8.60;;;3.93;;
6420;SDS011;3243;50.958;7.012;2024-02-21T08:27:06;9.63;;;4.00;;
6420;SDS011;3243;50.958;7.012;2024-02-21T08:29:33;10.23;;;4.13;;
6420;SDS011;3243;50.958;7.012;2024-02-21T08:32:00;9.27;;;3.93;;
6420;SDS011;3243;50.958;7.012;2024-02-21T08:34:27;9.63;;;3.90;;
6420;SDS011;3243;50.958;7.012;2024-02-21T08:36:56;8.37;;;4.07;;
6420;SDS011;3243;50.958;7.012;2024-02-21T08:39:23;9.53;;;4.00;;
6420;SDS011;3243;50.958;7.012;2024-02-21T08:41:50;11.27;;;4.03;;
6420;SDS011;3243;50.958;7.012;2024-02-21T08:44:23;10.50;;;4.33;;
6420;SDS011;3243;50.958;7.012;2024-02-21T08:46:52;9.27;;;4.10;;
6420;SDS011;3243;50.958;7.012;2024-02-21T08:49:20;9.33;;;3.90;;
6420;SDS011;3243;50.958;7.012;2024-02-21T08:51:47;9.03;;;3.77;;
6420;SDS011;3243;50.958;7.012;2024-02-21T08:54:14;8.23;;;4.00;;
6420;SDS011;3243;50.958;7.012;2024-02-21T08:56:42;13.93;;;4.70;;
6420;SDS011;3243;50.958;7.012;2024-02-21T08:59:09;11.70;;;3.90;;
6420;SDS011;3243;50.958;7.012;2024-02-21T09:01:36;11.37;;;4.70;;
6420;SDS011;3243;50.958;7.012;2024-02-21T09:04:04;10.43;;;4.20;;
6420;SDS011;3243;50.958;7.012;2024-02-21T09:06:31;10.73;;;4.20;;
6420;SDS011;3243;50.958;7.012;2024-02-21T09:09:00;12.57;;;4.20;;
6420;SDS011;3243;50.958;7.012;2024-02-21T09:11:27;12.03;;;4.23;;
6420;SDS011;3243;50.958;7.012;2024-02-21T09:13:55;11.13;;;4.10;;
6420;SDS011;3243;50.958;7.012;2024-02-21T09:16:22;8.00;;;3.57;;
6420;SDS011;3243;50.958;7.012;2024-02-21T09:18:49;10.93;;;4.00;;
6420;SDS011;3243;50.958;7.012;2024-02-21T09:21:17;11.70;;;4.13;;
6420;SDS011;3243;50.958;7.012;2024-02-21T09:23:45;12.23;;;4.37;;
6420;SDS011;3243;50.958;7.012;2024-02-21T09:26:12;12.17;;;4.00;;
6420;SDS011;3243;50.958;7.012;2024-02-21T09:28:43;11.57;;;3.60;;
6420;SDS011;3243;50.958;7.012;2024-02-21T09:31:12;8.70;;;3.87;;
6420;SDS011;3243;50.958;7.012;2024-02-21T09:33:39;9.57;;;4.00;;
6420;SDS011;3243;50.958;7.012;2024-02-21T09:36:07;9.80;;;4.33;;
6420;SDS011;3243;50.958;7.012;2024-02-21T09:38:35;8.07;;;3.33;;
6420;SDS011;3243;50.958;7.012;2024-02-21T09:41:11;9.10;;;3.50;;
6420;SDS011;3243;50.958;7.012;2024-02-21T09:43:41;9.77;;;3.60;;
6420;SDS011;3243;50.958;7.012;2024-02-21T09:46:11;6.23;;;3.10;;
6420;SDS011;3243;50.958;7.012;2024-02-21T09:51:13;9.10;;;3.43;;
6420;SDS011;3243;50.958;7.012;2024-02-21T09:53:41;10.73;;;3.17;;
6420;SDS011;3243;50.958;7.012;2024-02-21T09:56:23;8.73;;;3.70;;
6420;SDS011;3243;50.958;7.012;2024-02-21T09:58:50;9.47;;;3.40;;
6420;SDS011;3243;50.958;7.012;2024-02-21T10:01:17;7.50;;;3.40;;
6420;SDS011;3243;50.958;7.012;2024-02-21T10:03:59;11.50;;;3.70;;
6420;SDS011;3243;50.958;7.012;2024-02-21T10:06:26;10.47;;;3.63;;
6420;SDS011;3243;50.958;7.012;2024-02-21T10:08:53;10.10;;;3.87;;
6420;SDS011;3243;50.958;7.012;2024-02-21T10:11:23;8.20;;;3.50;;
6420;SDS011;3243;50.958;7.012;2024-02-21T10:13:51;6.87;;;3.30;;
6420;SDS011;3243;50.958;7.012;2024-02-21T10:16:33;10.57;;;3.40;;
6420;SDS011;3243;50.958;7.012;2024-02-21T10:19:00;5.40;;;3.20;;
6420;SDS011;3243;50.958;7.012;2024-02-21T10:21:27;7.20;;;3.23;;
6420;SDS011;3243;50.958;7.012;2024-02-21T10:23:55;9.90;;;3.60;;
6420;SDS011;3243;50.958;7.012;2024-02-21T10:26:23;8.53;;;3.53;;
6420;SDS011;3243;50.958;7.012;2024-02-21T10:28:50;12.23;;;3.20;;
6420;SDS011;3243;50.958;7.012;2024-02-21T10:31:22;10.83;;;3.57;;
6420;SDS011;3243;50.958;7.012;2024-02-21T10:33:57;7.27;;;3.47;;
6420;SDS011;3243;50.958;7.012;2024-02-21T10:36:25;9.03;;;3.13;;
6420;SDS011;3243;50.958;7.012;2024-02-21T10:38:52;8.13;;;3.20;;
6420;SDS011;3243;50.958;7.012;2024-02-21T10:41:21;9.53;;;2.90;;
6420;SDS011;3243;50.958;7.012;2024-02-21T10:43:49;10.13;;;3.50;;
6420;SDS011;3243;50.958;7.012;2024-02-21T10:46:20;9.53;;;2.80;;
6420;SDS011;3243;50.958;7.012;2024-02-21T10:48:56;11.37;;;3.57;;
6420;SDS011;3243;50.958;7.012;2024-02-21T10:51:32;6.97;;;3.17;;
6420;SDS011;3243;50.958;7.012;2024-02-21T10:56:38;6.80;;;3.07;;
6420;SDS011;3243;50.958;7.012;2024-02-21T10:59:07;9.70;;;3.10;;
6420;SDS011;3243;50.958;7.012;2024-02-21T11:01:34;7.47;;;3.10;;
6420;SDS011;3243;50.958;7.012;2024-02-21T11:04:06;9.03;;;2.80;;
6420;SDS011;3243;50.958;7.012;2024-02-21T11:06:38;6.57;;;2.77;;
6420;SDS011;3243;50.958;7.012;2024-02-21T11:09:08;8.37;;;3.03;;
6420;SDS011;3243;50.958;7.012;2024-02-21T11:11:39;7.30;;;3.27;;
6420;SDS011;3243;50.958;7.012;2024-02-21T11:14:19;8.50;;;3.13;;
6420;SDS011;3243;50.958;7.012;2024-02-21T11:16:47;8.33;;;2.80;;
6420;SDS011;3243;50.958;7.012;2024-02-21T11:19:21;10.27;;;3.00;;
6420;SDS011;3243;50.958;7.012;2024-02-21T11:21:50;9.03;;;3.23;;
6420;SDS011;3243;50.958;7.012;2024-02-21T11:24:27;9.50;;;3.43;;
6420;SDS011;3243;50.958;7.012;2024-02-21T11:27:08;8.27;;;3.00;;
6420;SDS011;3243;50.958;7.012;2024-02-21T11:32:16;8.60;;;3.00;;
6420;SDS011;3243;50.958;7.012;2024-02-21T11:34:58;7.10;;;2.83;;
6420;SDS011;3243;50.958;7.012;2024-02-21T11:37:34;9.33;;;3.33;;
6420;SDS011;3243;50.958;7.012;2024-02-21T11:40:03;8.53;;;2.83;;
6420;SDS011;3243;50.958;7.012;2024-02-21T11:42:33;8.67;;;3.00;;
6420;SDS011;3243;50.958;7.012;2024-02-21T11:45:00;4.83;;;2.87;;
6420;SDS011;3243;50.958;7.012;2024-02-21T11:47:28;9.50;;;2.90;;
6420;SDS011;3243;50.958;7.012;2024-02-21T11:49:55;8.67;;;2.70;;
6420;SDS011;3243;50.958;7.012;2024-02-21T11:52:23;7.17;;;2.67;;
6420;SDS011;3243;50.958;7.012;2024-02-21T11:54:55;8.77;;;2.83;;
6420;SDS011;3243;50.958;7.012;2024-02-21T11:57:30;6.20;;;2.77;;
6420;SDS011;3243;50.958;7.012;2024-02-21T11:59:57;4.83;;;2.90;;
6420;SDS011;3243;50.958;7.012;2024-02-21T12:02:28;6.87;;;2.63;;
6420;SDS011;3243;50.958;7.012;2024-02-21T12:04:55;11.17;;;3.07;;
6420;SDS011;3243;50.958;7.012;2024-02-21T12:07:22;9.73;;;3.20;;
6420;SDS011;3243;50.958;7.012;2024-02-21T12:09:51;7.90;;;2.90;;
6420;SDS011;3243;50.958;7.012;2024-02-21T12:12:19;7.87;;;3.10;;
6420;SDS011;3243;50.958;7.012;2024-02-21T12:14:53;8.90;;;3.43;;
6420;SDS011;3243;50.958;7.012;2024-02-21T12:17:24;7.00;;;3.07;;
6420;SDS011;3243;50.958;7.012;2024-02-21T12:19:51;9.87;;;2.77;;
6420;SDS011;3243;50.958;7.012;2024-02-21T12:22:19;7.37;;;2.60;;
6420;SDS011;3243;50.958;7.012;2024-02-21T12:24:46;9.00;;;2.77;;
6420;SDS011;3243;50.958;7.012;2024-02-21T12:27:14;7.40;;;2.60;;
6420;SDS011;3243;50.958;7.012;2024-02-21T12:29:41;6.10;;;2.67;;
6420;SDS011;3243;50.958;7.012;2024-02-21T12:32:08;7.87;;;3.13;;
6420;SDS011;3243;50.958;7.012;2024-02-21T12:34:35;9.13;;;2.97;;
6420;SDS011;3243;50.958;7.012;2024-02-21T12:37:18;7.73;;;2.90;;
6420;SDS011;3243;50.958;7.012;2024-02-21T12:39:46;11.57;;;3.10;;
6420;SDS011;3243;50.958;7.012;2024-02-21T12:42:14;8.63;;;2.83;;
6420;SDS011;3243;50.958;7.012;2024-02-21T12:44:41;8.70;;;3.13;;
6420;SDS011;3243;50.958;7.012;2024-02-21T12:47:08;12.37;;;3.13;;
6420;SDS011;3243;50.958;7.012;2024-02-21T12:49:35;7.17;;;2.80;;
6420;SDS011;3243;50.958;7.012;2024-02-21T12:52:03;7.40;;;2.97;;
6420;SDS011;3243;50.958;7.012;2024-02-21T12:54:31;9.73;;;2.87;;
6420;SDS011;3243;50.958;7.012;2024-02-21T12:56:58;7.13;;;2.80;;
6420;SDS011;3243;50.958;7.012;2024-02-21T12:59:29;7.67;;;2.80;;
6420;SDS011;3243;50.958;7.012;2024-02-21T13:01:56;6.80;;;2.80;;
6420;SDS011;3243;50.958;7.012;2024-02-21T13:04:23;8.07;;;2.83;;
6420;SDS011;3243;50.958;7.012;2024-02-21T13:06:53;9.03;;;2.90;;
6420;SDS011;3243;50.958;7.012;2024-02-21T13:09:21;5.50;;;2.50;;
6420;SDS011;3243;50.958;7.012;2024-02-21T13:11:48;7.03;;;3.17;;
6420;SDS011;3243;50.958;7.012;2024-02-21T13:14:17;5.63;;;2.90;;
6420;SDS011;3243;50.958;7.012;2024-02-21T13:16:44;3.83;;;2.47;;
6420;SDS011;3243;50.958;7.012;2024-02-21T13:19:11;10.50;;;3.20;;
6420;SDS011;3243;50.958;7.012;2024-02-21T13:21:40;6.03;;;2.80;;
6420;SDS011;3243;50.958;7.012;2024-02-21T13:24:08;7.63;;;3.30;;
6420;SDS011;3243;50.958;7.012;2024-02-21T13:26:35;8.10;;;2.90;;
6420;SDS011;3243;50.958;7.012;2024-02-21T13:29:02;9.60;;;2.70;;
6420;SDS011;3243;50.958;7.012;2024-02-21T13:31:29;6.63;;;2.60;;
6420;SDS011;3243;50.958;7.012;2024-02-21T13:33:56;8.40;;;3.30;;
6420;SDS011;3243;50.958;7.012;2024-02-21T13:36:23;6.90;;;2.53;;
6420;SDS011;3243;50.958;7.012;2024-02-21T13:38:50;6.70;;;2.50;;
6420;SDS011;3243;50.958;7.012;2024-02-21T13:41:19;6.77;;;2.60;;
6420;SDS011;3243;50.958;7.012;2024-02-21T13:43:48;6.40;;;2.33;;
6420;SDS011;3243;50.958;7.012;2024-02-21T13:46:16;5.07;;;2.40;;
6420;SDS011;3243;50.958;7.012;2024-02-21T13:48:43;7.37;;;2.47;;
6420;SDS011;3243;50.958;7.012;2024-02-21T13:51:10;9.13;;;2.90;;
6420;SDS011;3243;50.958;7.012;2024-02-21T13:53:38;8.10;;;2.70;;
6420;SDS011;3243;50.958;7.012;2024-02-21T13:56:05;5.13;;;2.37;;
6420;SDS011;3243;50.958;7.012;2024-02-21T13:58:32;6.93;;;2.70;;
6420;SDS011;3243;50.958;7.012;2024-02-21T14:00:59;7.87;;;3.00;;
6420;SDS011;3243;50.958;7.012;2024-02-21T14:03:27;5.97;;;3.20;;
6420;SDS011;3243;50.958;7.012;2024-02-21T14:05:54;6.93;;;2.53;;
6420;SDS011;3243;50.958;7.012;2024-02-21T14:08:21;4.90;;;2.40;;
6420;SDS011;3243;50.958;7.012;2024-02-21T14:10:50;7.23;;;3.00;;
6420;SDS011;3243;50.958;7.012;2024-02-21T14:13:17;5.73;;;2.40;;
6420;SDS011;3243;50.958;7.012;2024-02-21T14:15:44;6.13;;;2.60;;
6420;SDS011;3243;50.958;7.012;2024-02-21T14:18:16;7.33;;;2.80;;
6420;SDS011;3243;50.958;7.012;2024-02-21T14:20:43;6.47;;;2.60;;
6420;SDS011;3243;50.958;7.012;2024-02-21T14:23:10;6.07;;;2.77;;
6420;SDS011;3243;50.958;7.012;2024-02-21T14:25:39;10.10;;;2.87;;
6420;SDS011;3243;50.958;7.012;2024-02-21T14:28:07;6.97;;;2.90;;
6420;SDS011;3243;50.958;7.012;2024-02-21T14:30:37;6.17;;;2.53;;
6420;SDS011;3243;50.958;7.012;2024-02-21T14:33:04;5.97;;;3.10;;
6420;SDS011;3243;50.958;7.012;2024-02-21T14:35:31;6.53;;;3.13;;
6420;SDS011;3243;50.958;7.012;2024-02-21T14:38:00;9.63;;;3.20;;
6420;SDS011;3243;50.958;7.012;2024-02-21T14:40:28;6.17;;;2.63;;
6420;SDS011;3243;50.958;7.012;2024-02-21T14:42:56;7.40;;;2.70;;
6420;SDS011;3243;50.958;7.012;2024-02-21T14:45:23;6.50;;;2.70;;
6420;SDS011;3243;50.958;7.012;2024-02-21T14:47:50;8.07;;;2.97;;
6420;SDS011;3243;50.958;7.012;2024-02-21T14:50:17;6.63;;;2.90;;
6420;SDS011;3243;50.958;7.012;2024-02-21T14:52:45;8.17;;;2.70;;
6420;SDS011;3243;50.958;7.012;2024-02-21T14:55:13;7.77;;;3.43;;
6420;SDS011;3243;50.958;7.012;2024-02-21T14:57:40;6.07;;;2.80;;
6420;SDS011;3243;50.958;7.012;2024-02-21T15:00:09;5.30;;;2.40;;
6420;SDS011;3243;50.958;7.012;2024-02-21T15:02:37;9.03;;;2.97;;
6420;SDS011;3243;50.958;7.012;2024-02-21T15:05:04;7.10;;;3.00;;
6420;SDS011;3243;50.958;7.012;2024-02-21T15:07:32;5.67;;;3.07;;
6420;SDS011;3243;50.958;7.012;2024-02-21T15:09:59;8.97;;;3.50;;
6420;SDS011;3243;50.958;7.012;2024-02-21T15:12:26;4.93;;;2.60;;
6420;SDS011;3243;50.958;7.012;2024-02-21T15:14:54;7.07;;;2.97;;
6420;SDS011;3243;50.958;7.012;2024-02-21T15:17:20;6.03;;;2.93;;
6420;SDS011;3243;50.958;7.012;2024-02-21T15:19:47;5.17;;;2.37;;